sensor_id;sensor_type;location;lat;lon;timestamp;P1;durP1;ratioP1;P2;durP2;ratioP2
8871;SDS011;4472;52.092;9.820;2022-07-12T00:01:00;28.17;;;5.47;;
8871;SDS011;4472;52.092;9.820;2022-07-12T00:03:47;16.13;;;4.30;;
8871;SDS011;4472;52.092;9.820;2022-07-12T00:06:35;8.97;;;4.73;;
8871;SDS011;4472;52.092;9.820;2022-07-12T00:09:23;16.43;;;4.80;;
8871;SDS011;4472;52.092;9.820;2022-07-12T00:12:10;21.90;;;4.80;;
8871;SDS011;4472;52.092;9.820;2022-07-12T00:14:58;13.60;;;4.50;;
8871;SDS011;4472;52.092;9.820;2022-07-12T00:17:45;21.30;;;4.63;;
8871;SDS011;4472;52.092;9.820;2022-07-12T00:20:32;26.83;;;5.07;;
8871;SDS011;4472;52.092;9.820;2022-07-12T00:23:19;43.63;;;5.87;;
8871;SDS011;4472;52.092;9.820;2022-07-12T00:26:08;32.80;;;4.93;;
8871;SDS011;4472;52.092;9.820;2022-07-12T00:28:55;40.47;;;6.13;;
8871;SDS011;4472;52.092;9.820;2022-07-12T00:31:42;24.53;;;4.80;;
8871;SDS011;4472;52.092;9.820;2022-07-12T00:34:30;30.47;;;5.40;;
8871;SDS011;4472;52.092;9.820;2022-07-12T00:37:18;27.87;;;4.47;;
8871;SDS011;4472;52.092;9.820;2022-07-12T00:40:06;30.40;;;5.20;;
8871;SDS011;4472;52.092;9.820;2022-07-12T00:42:55;20.33;;;4.30;;
8871;SDS011;4472;52.092;9.820;2022-07-12T00:45:42;23.43;;;5.27;;
8871;SDS011;4472;52.092;9.820;2022-07-12T00:48:30;17.23;;;4.23;;
8871;SDS011;4472;52.092;9.820;2022-07-12T00:51:19;26.80;;;4.70;;
8871;SDS011;4472;52.092;9.820;2022-07-12T00:54:06;18.83;;;5.00;;
8871;SDS011;4472;52.092;9.820;2022-07-12T00:56:53;16.40;;;4.67;;
8871;SDS011;4472;52.092;9.820;2022-07-12T00:59:42;18.17;;;4.30;;
8871;SDS011;4472;52.092;9.820;2022-07-12T01:02:29;13.93;;;4.50;;
8871;SDS011;4472;52.092;9.820;2022-07-12T01:05:17;22.90;;;4.97;;
8871;SDS011;4472;52.092;9.820;2022-07-12T01:08:04;17.73;;;4.80;;
8871;SDS011;4472;52.092;9.820;2022-07-12T01:10:53;25.77;;;4.77;;
8871;SDS011;4472;52.092;9.820;2022-07-12T01:13:41;24.23;;;5.43;;
8871;SDS011;4472;52.092;9.820;2022-07-12T01:16:31;18.60;;;4.70;;
8871;SDS011;4472;52.092;9.820;2022-07-12T01:19:20;20.97;;;4.97;;
8871;SDS011;4472;52.092;9.820;2022-07-12T01:22:10;30.70;;;5.30;;
8871;SDS011;4472;52.092;9.820;2022-07-12T01:24:58;17.53;;;4.60;;
8871;SDS011;4472;52.092;9.820;2022-07-12T01:27:46;31.27;;;5.60;;
8871;SDS011;4472;52.092;9.820;2022-07-12T01:30:34;25.27;;;5.33;;
8871;SDS011;4472;52.092;9.820;2022-07-12T01:33:21;39.13;;;5.57;;
8871;SDS011;4472;52.092;9.820;2022-07-12T01:36:08;32.67;;;5.07;;
8871;SDS011;4472;52.092;9.820;2022-07-12T01:38:56;21.03;;;5.03;;
8871;SDS011;4472;52.092;9.820;2022-07-12T01:41:44;31.90;;;5.00;;
8871;SDS011;4472;52.092;9.820;2022-07-12T01:44:32;26.97;;;5.17;;
8871;SDS011;4472;52.092;9.820;2022-07-12T01:47:20;28.53;;;5.27;;
8871;SDS011;4472;52.092;9.820;2022-07-12T01:50:08;25.70;;;4.93;;
8871;SDS011;4472;52.092;9.820;2022-07-12T01:52:56;33.73;;;5.30;;
8871;SDS011;4472;52.092;9.820;2022-07-12T01:55:44;23.33;;;4.93;;
8871;SDS011;4472;52.092;9.820;2022-07-12T01:58:33;21.77;;;5.63;;
8871;SDS011;4472;52.092;9.820;2022-07-12T02:01:20;24.10;;;5.23;;
8871;SDS011;4472;52.092;9.820;2022-07-12T02:04:07;24.87;;;4.93;;
8871;SDS011;4472;52.092;9.820;2022-07-12T02:06:55;30.50;;;6.00;;
8871;SDS011;4472;52.092;9.820;2022-07-12T02:09:42;22.43;;;5.60;;
8871;SDS011;4472;52.092;9.820;2022-07-12T02:12:29;21.83;;;5.27;;
8871;SDS011;4472;52.092;9.820;2022-07-12T02:15:18;33.10;;;5.53;;
8871;SDS011;4472;52.092;9.820;2022-07-12T02:18:05;18.13;;;4.80;;
8871;SDS011;4472;52.092;9.820;2022-07-12T02:20:52;20.93;;;4.80;;
8871;SDS011;4472;52.092;9.820;2022-07-12T02:23:39;27.23;;;5.43;;
8871;SDS011;4472;52.092;9.820;2022-07-12T02:26:26;26.97;;;5.53;;
8871;SDS011;4472;52.092;9.820;2022-07-12T02:29:14;29.93;;;5.53;;
8871;SDS011;4472;52.092;9.820;2022-07-12T02:32:02;19.23;;;4.93;;
8871;SDS011;4472;52.092;9.820;2022-07-12T02:34:50;24.63;;;5.83;;
8871;SDS011;4472;52.092;9.820;2022-07-12T02:37:37;27.87;;;5.20;;
8871;SDS011;4472;52.092;9.820;2022-07-12T02:40:24;27.13;;;5.77;;
8871;SDS011;4472;52.092;9.820;2022-07-12T02:43:34;29.50;;;5.80;;
8871;SDS011;4472;52.092;9.820;2022-07-12T02:46:22;29.33;;;6.60;;
8871;SDS011;4472;52.092;9.820;2022-07-12T02:49:10;25.43;;;6.97;;
8871;SDS011;4472;52.092;9.820;2022-07-12T02:51:57;27.60;;;6.30;;
8871;SDS011;4472;52.092;9.820;2022-07-12T02:54:44;30.27;;;6.33;;
8871;SDS011;4472;52.092;9.820;2022-07-12T02:57:32;19.77;;;5.97;;
8871;SDS011;4472;52.092;9.820;2022-07-12T03:00:19;24.13;;;5.73;;
8871;SDS011;4472;52.092;9.820;2022-07-12T03:03:06;30.30;;;5.90;;
8871;SDS011;4472;52.092;9.820;2022-07-12T03:05:55;24.73;;;6.17;;
8871;SDS011;4472;52.092;9.820;2022-07-12T03:08:43;26.97;;;6.47;;
8871;SDS011;4472;52.092;9.820;2022-07-12T03:11:30;22.27;;;5.80;;
8871;SDS011;4472;52.092;9.820;2022-07-12T03:14:17;22.17;;;5.63;;
8871;SDS011;4472;52.092;9.820;2022-07-12T03:17:05;22.27;;;6.60;;
8871;SDS011;4472;52.092;9.820;2022-07-12T03:19:52;22.30;;;6.20;;
8871;SDS011;4472;52.092;9.820;2022-07-12T03:22:40;18.27;;;5.90;;
8871;SDS011;4472;52.092;9.820;2022-07-12T03:25:27;15.70;;;5.73;;
8871;SDS011;4472;52.092;9.820;2022-07-12T03:28:14;16.87;;;5.60;;
8871;SDS011;4472;52.092;9.820;2022-07-12T03:31:02;24.10;;;6.47;;
8871;SDS011;4472;52.092;9.820;2022-07-12T03:33:49;14.90;;;6.60;;
8871;SDS011;4472;52.092;9.820;2022-07-12T03:36:36;15.13;;;5.53;;
8871;SDS011;4472;52.092;9.820;2022-07-12T03:39:25;20.17;;;6.60;;
8871;SDS011;4472;52.092;9.820;2022-07-12T03:42:12;19.17;;;6.07;;
8871;SDS011;4472;52.092;9.820;2022-07-12T03:44:59;27.40;;;6.67;;
8871;SDS011;4472;52.092;9.820;2022-07-12T03:47:47;17.57;;;6.17;;
8871;SDS011;4472;52.092;9.820;2022-07-12T03:50:36;28.13;;;7.57;;
8871;SDS011;4472;52.092;9.820;2022-07-12T03:53:26;28.00;;;7.60;;
8871;SDS011;4472;52.092;9.820;2022-07-12T03:56:14;33.23;;;7.77;;
8871;SDS011;4472;52.092;9.820;2022-07-12T03:59:22;32.57;;;7.77;;
8871;SDS011;4472;52.092;9.820;2022-07-12T04:02:10;28.50;;;7.00;;
8871;SDS011;4472;52.092;9.820;2022-07-12T04:04:57;30.33;;;6.90;;
8871;SDS011;4472;52.092;9.820;2022-07-12T04:07:45;32.37;;;7.23;;
8871;SDS011;4472;52.092;9.820;2022-07-12T04:10:32;25.30;;;6.33;;
8871;SDS011;4472;52.092;9.820;2022-07-12T04:13:22;26.60;;;7.47;;
8871;SDS011;4472;52.092;9.820;2022-07-12T04:16:09;24.10;;;6.27;;
8871;SDS011;4472;52.092;9.820;2022-07-12T04:18:57;17.83;;;6.80;;
8871;SDS011;4472;52.092;9.820;2022-07-12T04:21:44;16.33;;;6.70;;
8871;SDS011;4472;52.092;9.820;2022-07-12T04:24:32;19.40;;;6.97;;
8871;SDS011;4472;52.092;9.820;2022-07-12T04:27:19;18.77;;;6.53;;
8871;SDS011;4472;52.092;9.820;2022-07-12T04:30:09;21.97;;;7.37;;
8871;SDS011;4472;52.092;9.820;2022-07-12T04:32:56;22.77;;;7.20;;
8871;SDS011;4472;52.092;9.820;2022-07-12T04:35:43;17.90;;;6.83;;
8871;SDS011;4472;52.092;9.820;2022-07-12T04:38:31;24.00;;;6.93;;
8871;SDS011;4472;52.092;9.820;2022-07-12T04:41:18;18.83;;;8.07;;
8871;SDS011;4472;52.092;9.820;2022-07-12T04:44:05;16.57;;;7.70;;
8871;SDS011;4472;52.092;9.820;2022-07-12T04:46:54;20.27;;;6.90;;
8871;SDS011;4472;52.092;9.820;2022-07-12T04:49:41;18.40;;;7.00;;
8871;SDS011;4472;52.092;9.820;2022-07-12T04:52:29;11.80;;;7.10;;
8871;SDS011;4472;52.092;9.820;2022-07-12T04:55:16;22.63;;;7.50;;
8871;SDS011;4472;52.092;9.820;2022-07-12T04:58:03;17.17;;;7.17;;
8871;SDS011;4472;52.092;9.820;2022-07-12T05:00:50;13.87;;;6.53;;
8871;SDS011;4472;52.092;9.820;2022-07-12T05:03:39;14.63;;;7.00;;
8871;SDS011;4472;52.092;9.820;2022-07-12T05:06:26;21.00;;;7.10;;
8871;SDS011;4472;52.092;9.820;2022-07-12T05:09:13;16.73;;;7.00;;
8871;SDS011;4472;52.092;9.820;2022-07-12T05:12:00;15.17;;;6.70;;
8871;SDS011;4472;52.092;9.820;2022-07-12T05:14:47;14.77;;;6.47;;
8871;SDS011;4472;52.092;9.820;2022-07-12T05:17:35;13.47;;;6.73;;
8871;SDS011;4472;52.092;9.820;2022-07-12T05:20:23;13.57;;;6.57;;
8871;SDS011;4472;52.092;9.820;2022-07-12T05:23:11;16.27;;;6.67;;
8871;SDS011;4472;52.092;9.820;2022-07-12T05:25:58;21.40;;;7.10;;
8871;SDS011;4472;52.092;9.820;2022-07-12T05:28:45;20.57;;;6.90;;
8871;SDS011;4472;52.092;9.820;2022-07-12T05:31:32;20.03;;;7.60;;
8871;SDS011;4472;52.092;9.820;2022-07-12T05:34:19;14.23;;;6.90;;
8871;SDS011;4472;52.092;9.820;2022-07-12T05:37:08;14.10;;;6.50;;
8871;SDS011;4472;52.092;9.820;2022-07-12T05:39:55;14.63;;;6.43;;
8871;SDS011;4472;52.092;9.820;2022-07-12T05:42:42;12.30;;;6.57;;
8871;SDS011;4472;52.092;9.820;2022-07-12T05:45:29;14.33;;;6.83;;
8871;SDS011;4472;52.092;9.820;2022-07-12T05:48:16;18.20;;;7.03;;
8871;SDS011;4472;52.092;9.820;2022-07-12T05:51:03;11.83;;;6.87;;
8871;SDS011;4472;52.092;9.820;2022-07-12T05:54:06;8.20;;;6.53;;
8871;SDS011;4472;52.092;9.820;2022-07-12T05:56:53;11.33;;;6.47;;
8871;SDS011;4472;52.092;9.820;2022-07-12T05:59:40;9.87;;;6.10;;
8871;SDS011;4472;52.092;9.820;2022-07-12T06:02:28;8.83;;;6.20;;
8871;SDS011;4472;52.092;9.820;2022-07-12T06:05:15;9.20;;;5.87;;
8871;SDS011;4472;52.092;9.820;2022-07-12T06:08:03;7.10;;;5.60;;
8871;SDS011;4472;52.092;9.820;2022-07-12T06:10:51;6.17;;;5.57;;
8871;SDS011;4472;52.092;9.820;2022-07-12T06:13:39;8.37;;;5.60;;
8871;SDS011;4472;52.092;9.820;2022-07-12T06:16:26;9.63;;;5.80;;
8871;SDS011;4472;52.092;9.820;2022-07-12T06:19:13;9.47;;;6.03;;
8871;SDS011;4472;52.092;9.820;2022-07-12T06:22:00;8.93;;;5.80;;
8871;SDS011;4472;52.092;9.820;2022-07-12T06:24:48;9.70;;;5.80;;
8871;SDS011;4472;52.092;9.820;2022-07-12T06:27:36;12.10;;;5.47;;
8871;SDS011;4472;52.092;9.820;2022-07-12T06:30:24;8.03;;;5.57;;
8871;SDS011;4472;52.092;9.820;2022-07-12T06:33:11;6.00;;;5.10;;
8871;SDS011;4472;52.092;9.820;2022-07-12T06:35:58;7.93;;;5.40;;
8871;SDS011;4472;52.092;9.820;2022-07-12T06:38:46;7.30;;;6.47;;
8871;SDS011;4472;52.092;9.820;2022-07-12T06:41:33;8.53;;;6.00;;
8871;SDS011;4472;52.092;9.820;2022-07-12T06:44:21;9.20;;;6.23;;
8871;SDS011;4472;52.092;9.820;2022-07-12T06:47:08;8.00;;;5.83;;
8871;SDS011;4472;52.092;9.820;2022-07-12T06:49:56;8.10;;;5.40;;
8871;SDS011;4472;52.092;9.820;2022-07-12T06:52:43;6.93;;;5.50;;
8871;SDS011;4472;52.092;9.820;2022-07-12T06:55:30;7.80;;;6.40;;
8871;SDS011;4472;52.092;9.820;2022-07-12T06:58:18;9.00;;;7.00;;
8871;SDS011;4472;52.092;9.820;2022-07-12T07:01:07;8.07;;;7.10;;
8871;SDS011;4472;52.092;9.820;2022-07-12T07:03:54;7.87;;;6.50;;
8871;SDS011;4472;52.092;9.820;2022-07-12T07:06:41;8.43;;;7.03;;
8871;SDS011;4472;52.092;9.820;2022-07-12T07:09:28;7.63;;;6.20;;
8871;SDS011;4472;52.092;9.820;2022-07-12T07:12:16;6.87;;;6.17;;
8871;SDS011;4472;52.092;9.820;2022-07-12T07:15:03;8.47;;;6.30;;
8871;SDS011;4472;52.092;9.820;2022-07-12T07:17:53;6.73;;;6.13;;
8871;SDS011;4472;52.092;9.820;2022-07-12T07:20:40;6.37;;;5.77;;
8871;SDS011;4472;52.092;9.820;2022-07-12T07:23:27;6.63;;;5.97;;
8871;SDS011;4472;52.092;9.820;2022-07-12T07:26:15;7.80;;;5.40;;
8871;SDS011;4472;52.092;9.820;2022-07-12T07:29:02;6.50;;;5.70;;
8871;SDS011;4472;52.092;9.820;2022-07-12T07:32:07;7.17;;;4.33;;
8871;SDS011;4472;52.092;9.820;2022-07-12T07:34:55;3.90;;;3.60;;
8871;SDS011;4472;52.092;9.820;2022-07-12T07:37:42;4.13;;;3.83;;
8871;SDS011;4472;52.092;9.820;2022-07-12T07:40:29;5.70;;;3.70;;
8871;SDS011;4472;52.092;9.820;2022-07-12T07:43:17;3.10;;;2.90;;
8871;SDS011;4472;52.092;9.820;2022-07-12T07:46:04;3.00;;;2.80;;
8871;SDS011;4472;52.092;9.820;2022-07-12T07:48:51;3.07;;;2.80;;
8871;SDS011;4472;52.092;9.820;2022-07-12T07:51:39;3.23;;;2.90;;
8871;SDS011;4472;52.092;9.820;2022-07-12T07:54:27;3.17;;;2.97;;
8871;SDS011;4472;52.092;9.820;2022-07-12T07:57:14;3.17;;;2.97;;
8871;SDS011;4472;52.092;9.820;2022-07-12T08:00:02;3.27;;;3.07;;
8871;SDS011;4472;52.092;9.820;2022-07-12T08:02:50;3.23;;;2.93;;
8871;SDS011;4472;52.092;9.820;2022-07-12T08:05:37;3.03;;;2.70;;
8871;SDS011;4472;52.092;9.820;2022-07-12T08:08:25;3.90;;;3.10;;
8871;SDS011;4472;52.092;9.820;2022-07-12T08:11:13;3.57;;;3.27;;
8871;SDS011;4472;52.092;9.820;2022-07-12T08:14:01;3.73;;;2.90;;
8871;SDS011;4472;52.092;9.820;2022-07-12T08:16:48;3.40;;;3.20;;
8871;SDS011;4472;52.092;9.820;2022-07-12T08:19:35;3.67;;;2.93;;
8871;SDS011;4472;52.092;9.820;2022-07-12T08:22:22;3.93;;;2.57;;
8871;SDS011;4472;52.092;9.820;2022-07-12T08:25:11;3.60;;;2.30;;
8871;SDS011;4472;52.092;9.820;2022-07-12T08:27:58;2.93;;;2.73;;
8871;SDS011;4472;52.092;9.820;2022-07-12T08:30:45;3.03;;;2.73;;
8871;SDS011;4472;52.092;9.820;2022-07-12T08:33:33;4.20;;;2.73;;
8871;SDS011;4472;52.092;9.820;2022-07-12T08:36:23;3.30;;;2.83;;
8871;SDS011;4472;52.092;9.820;2022-07-12T08:39:10;3.20;;;2.87;;
8871;SDS011;4472;52.092;9.820;2022-07-12T08:41:58;3.23;;;3.03;;
8871;SDS011;4472;52.092;9.820;2022-07-12T08:44:53;2.70;;;2.50;;
8871;SDS011;4472;52.092;9.820;2022-07-12T08:47:41;3.47;;;2.57;;
8871;SDS011;4472;52.092;9.820;2022-07-12T08:50:28;3.33;;;2.70;;
8871;SDS011;4472;52.092;9.820;2022-07-12T08:53:15;3.50;;;2.60;;
8871;SDS011;4472;52.092;9.820;2022-07-12T08:56:03;3.63;;;2.53;;
8871;SDS011;4472;52.092;9.820;2022-07-12T08:58:52;2.50;;;2.40;;
8871;SDS011;4472;52.092;9.820;2022-07-12T09:01:55;2.63;;;2.43;;
8871;SDS011;4472;52.092;9.820;2022-07-12T09:04:42;3.33;;;2.50;;
8871;SDS011;4472;52.092;9.820;2022-07-12T09:07:30;2.33;;;2.23;;
8871;SDS011;4472;52.092;9.820;2022-07-12T09:10:20;2.83;;;2.63;;
8871;SDS011;4472;52.092;9.820;2022-07-12T09:13:10;2.73;;;2.53;;
8871;SDS011;4472;52.092;9.820;2022-07-12T09:16:12;2.90;;;2.40;;
8871;SDS011;4472;52.092;9.820;2022-07-12T09:19:13;3.00;;;2.20;;
8871;SDS011;4472;52.092;9.820;2022-07-12T09:22:02;2.37;;;2.17;;
8871;SDS011;4472;52.092;9.820;2022-07-12T09:24:50;2.83;;;2.63;;
8871;SDS011;4472;52.092;9.820;2022-07-12T09:27:38;2.50;;;2.40;;
8871;SDS011;4472;52.092;9.820;2022-07-12T09:30:26;2.43;;;2.23;;
8871;SDS011;4472;52.092;9.820;2022-07-12T09:33:17;2.10;;;2.00;;
8871;SDS011;4472;52.092;9.820;2022-07-12T09:36:23;3.30;;;2.40;;
8871;SDS011;4472;52.092;9.820;2022-07-12T09:39:11;2.03;;;1.93;;
8871;SDS011;4472;52.092;9.820;2022-07-12T09:41:58;3.13;;;2.03;;
8871;SDS011;4472;52.092;9.820;2022-07-12T09:44:47;2.37;;;2.27;;
8871;SDS011;4472;52.092;9.820;2022-07-12T09:47:35;2.30;;;2.20;;
8871;SDS011;4472;52.092;9.820;2022-07-12T09:50:24;2.40;;;2.20;;
8871;SDS011;4472;52.092;9.820;2022-07-12T09:53:11;2.50;;;2.07;;
8871;SDS011;4472;52.092;9.820;2022-07-12T09:56:10;2.23;;;2.00;;
8871;SDS011;4472;52.092;9.820;2022-07-12T09:58:58;2.20;;;1.83;;
8871;SDS011;4472;52.092;9.820;2022-07-12T10:01:47;4.63;;;2.00;;
8871;SDS011;4472;52.092;9.820;2022-07-12T10:04:35;2.20;;;2.07;;
8871;SDS011;4472;52.092;9.820;2022-07-12T10:07:24;2.13;;;1.93;;
8871;SDS011;4472;52.092;9.820;2022-07-12T10:10:11;2.10;;;2.00;;
8871;SDS011;4472;52.092;9.820;2022-07-12T10:12:58;2.20;;;1.70;;
8871;SDS011;4472;52.092;9.820;2022-07-12T10:15:46;3.53;;;2.00;;
8871;SDS011;4472;52.092;9.820;2022-07-12T10:18:35;2.07;;;1.97;;
8871;SDS011;4472;52.092;9.820;2022-07-12T10:21:22;2.20;;;1.90;;
8871;SDS011;4472;52.092;9.820;2022-07-12T10:27:31;2.27;;;1.80;;
8871;SDS011;4472;52.092;9.820;2022-07-12T10:30:21;1.90;;;1.80;;
8871;SDS011;4472;52.092;9.820;2022-07-12T10:33:14;1.80;;;1.67;;
8871;SDS011;4472;52.092;9.820;2022-07-12T10:36:02;1.80;;;1.70;;
8871;SDS011;4472;52.092;9.820;2022-07-12T10:39:09;4.53;;;1.70;;
8871;SDS011;4472;52.092;9.820;2022-07-12T10:42:12;1.60;;;1.50;;
8871;SDS011;4472;52.092;9.820;2022-07-12T10:45:09;2.40;;;1.70;;
8871;SDS011;4472;52.092;9.820;2022-07-12T10:48:00;1.77;;;1.63;;
8871;SDS011;4472;52.092;9.820;2022-07-12T10:50:49;1.60;;;1.60;;
8871;SDS011;4472;52.092;9.820;2022-07-12T10:53:45;2.60;;;1.70;;
8871;SDS011;4472;52.092;9.820;2022-07-12T10:56:34;1.73;;;1.63;;
8871;SDS011;4472;52.092;9.820;2022-07-12T10:59:24;1.50;;;1.40;;
8871;SDS011;4472;52.092;9.820;2022-07-12T11:02:14;1.50;;;1.50;;
8871;SDS011;4472;52.092;9.820;2022-07-12T11:05:02;1.40;;;1.40;;
8871;SDS011;4472;52.092;9.820;2022-07-12T11:07:50;1.30;;;1.30;;
8871;SDS011;4472;52.092;9.820;2022-07-12T11:10:38;1.23;;;1.23;;
8871;SDS011;4472;52.092;9.820;2022-07-12T11:13:25;3.17;;;1.50;;
8871;SDS011;4472;52.092;9.820;2022-07-12T11:16:12;2.10;;;1.60;;
8871;SDS011;4472;52.092;9.820;2022-07-12T11:19:01;1.43;;;1.43;;
8871;SDS011;4472;52.092;9.820;2022-07-12T11:21:48;1.83;;;1.73;;
8871;SDS011;4472;52.092;9.820;2022-07-12T11:24:40;2.47;;;1.60;;
8871;SDS011;4472;52.092;9.820;2022-07-12T11:27:28;1.77;;;1.63;;
8871;SDS011;4472;52.092;9.820;2022-07-12T11:30:16;1.70;;;1.60;;
8871;SDS011;4472;52.092;9.820;2022-07-12T11:33:03;1.50;;;1.50;;
8871;SDS011;4472;52.092;9.820;2022-07-12T11:35:52;1.57;;;1.47;;
8871;SDS011;4472;52.092;9.820;2022-07-12T11:38:42;3.93;;;1.63;;
8871;SDS011;4472;52.092;9.820;2022-07-12T11:41:30;1.63;;;1.53;;
8871;SDS011;4472;52.092;9.820;2022-07-12T11:44:17;1.40;;;1.40;;
8871;SDS011;4472;52.092;9.820;2022-07-12T11:47:04;1.73;;;1.30;;
8871;SDS011;4472;52.092;9.820;2022-07-12T11:49:52;1.50;;;1.40;;
8871;SDS011;4472;52.092;9.820;2022-07-12T11:52:42;1.30;;;1.30;;
8871;SDS011;4472;52.092;9.820;2022-07-12T11:55:30;1.60;;;1.50;;
8871;SDS011;4472;52.092;9.820;2022-07-12T12:00:55;2.33;;;1.57;;
8871;SDS011;4472;52.092;9.820;2022-07-12T12:03:43;1.60;;;1.50;;
8871;SDS011;4472;52.092;9.820;2022-07-12T12:06:31;2.10;;;1.33;;
8871;SDS011;4472;52.092;9.820;2022-07-12T12:09:19;1.83;;;1.30;;
8871;SDS011;4472;52.092;9.820;2022-07-12T12:12:13;2.70;;;1.60;;
8871;SDS011;4472;52.092;9.820;2022-07-12T12:15:01;1.30;;;1.30;;
8871;SDS011;4472;52.092;9.820;2022-07-12T12:17:51;2.73;;;1.33;;
8871;SDS011;4472;52.092;9.820;2022-07-12T12:20:40;2.10;;;1.43;;
8871;SDS011;4472;52.092;9.820;2022-07-12T12:23:28;1.27;;;1.20;;
8871;SDS011;4472;52.092;9.820;2022-07-12T12:26:17;1.50;;;1.40;;
8871;SDS011;4472;52.092;9.820;2022-07-12T12:29:06;1.30;;;1.20;;
8871;SDS011;4472;52.092;9.820;2022-07-12T12:31:56;1.40;;;1.40;;
8871;SDS011;4472;52.092;9.820;2022-07-12T12:37:53;1.60;;;1.50;;
8871;SDS011;4472;52.092;9.820;2022-07-12T12:40:49;1.17;;;1.17;;
8871;SDS011;4472;52.092;9.820;2022-07-12T12:43:39;1.40;;;1.40;;
8871;SDS011;4472;52.092;9.820;2022-07-12T12:52:47;2.20;;;1.30;;
8871;SDS011;4472;52.092;9.820;2022-07-12T12:55:35;1.43;;;1.20;;
8871;SDS011;4472;52.092;9.820;2022-07-12T12:58:23;1.47;;;1.37;;
8871;SDS011;4472;52.092;9.820;2022-07-12T13:01:12;1.20;;;1.20;;
8871;SDS011;4472;52.092;9.820;2022-07-12T13:04:00;1.20;;;1.10;;
8871;SDS011;4472;52.092;9.820;2022-07-12T13:06:47;1.30;;;1.30;;
8871;SDS011;4472;52.092;9.820;2022-07-12T13:09:34;1.30;;;1.20;;
8871;SDS011;4472;52.092;9.820;2022-07-12T13:12:21;1.90;;;1.20;;
8871;SDS011;4472;52.092;9.820;2022-07-12T13:15:08;1.20;;;1.20;;
8871;SDS011;4472;52.092;9.820;2022-07-12T13:17:57;1.10;;;1.10;;
8871;SDS011;4472;52.092;9.820;2022-07-12T13:20:44;1.23;;;1.20;;
8871;SDS011;4472;52.092;9.820;2022-07-12T13:23:31;1.47;;;1.37;;
8871;SDS011;4472;52.092;9.820;2022-07-12T13:26:19;3.23;;;1.40;;
8871;SDS011;4472;52.092;9.820;2022-07-12T13:29:06;1.33;;;1.23;;
8871;SDS011;4472;52.092;9.820;2022-07-12T13:31:53;1.53;;;1.43;;
8871;SDS011;4472;52.092;9.820;2022-07-12T13:34:44;1.37;;;1.27;;
8871;SDS011;4472;52.092;9.820;2022-07-12T13:37:33;1.20;;;1.10;;
8871;SDS011;4472;52.092;9.820;2022-07-12T13:40:21;1.73;;;1.20;;
8871;SDS011;4472;52.092;9.820;2022-07-12T13:43:08;1.20;;;1.10;;
8871;SDS011;4472;52.092;9.820;2022-07-12T13:45:55;1.47;;;1.37;;
8871;SDS011;4472;52.092;9.820;2022-07-12T13:48:43;2.47;;;1.00;;
8871;SDS011;4472;52.092;9.820;2022-07-12T13:51:32;3.60;;;1.10;;
8871;SDS011;4472;52.092;9.820;2022-07-12T13:54:19;0.90;;;0.90;;
8871;SDS011;4472;52.092;9.820;2022-07-12T13:57:06;1.13;;;1.10;;
8871;SDS011;4472;52.092;9.820;2022-07-12T13:59:55;1.13;;;1.00;;
8871;SDS011;4472;52.092;9.820;2022-07-12T14:02:44;1.00;;;1.00;;
8871;SDS011;4472;52.092;9.820;2022-07-12T14:05:33;0.90;;;0.90;;
8871;SDS011;4472;52.092;9.820;2022-07-12T14:08:21;1.10;;;1.10;;
8871;SDS011;4472;52.092;9.820;2022-07-12T14:11:08;1.10;;;1.10;;
8871;SDS011;4472;52.092;9.820;2022-07-12T14:13:55;1.13;;;1.10;;
8871;SDS011;4472;52.092;9.820;2022-07-12T14:16:43;0.93;;;0.93;;
8871;SDS011;4472;52.092;9.820;2022-07-12T14:19:31;1.10;;;1.10;;
8871;SDS011;4472;52.092;9.820;2022-07-12T14:22:18;1.10;;;1.10;;
8871;SDS011;4472;52.092;9.820;2022-07-12T14:25:08;1.37;;;1.20;;
8871;SDS011;4472;52.092;9.820;2022-07-12T14:27:55;1.40;;;1.17;;
8871;SDS011;4472;52.092;9.820;2022-07-12T14:30:43;1.47;;;1.20;;
8871;SDS011;4472;52.092;9.820;2022-07-12T14:33:30;3.40;;;1.30;;
8871;SDS011;4472;52.092;9.820;2022-07-12T14:36:17;1.37;;;1.20;;
8871;SDS011;4472;52.092;9.820;2022-07-12T14:39:04;1.07;;;1.07;;
8871;SDS011;4472;52.092;9.820;2022-07-12T14:41:53;1.20;;;1.20;;
8871;SDS011;4472;52.092;9.820;2022-07-12T14:44:41;1.00;;;1.00;;
8871;SDS011;4472;52.092;9.820;2022-07-12T14:47:28;1.40;;;1.20;;
8871;SDS011;4472;52.092;9.820;2022-07-12T14:50:15;1.57;;;1.10;;
8871;SDS011;4472;52.092;9.820;2022-07-12T14:53:02;1.13;;;1.13;;
8871;SDS011;4472;52.092;9.820;2022-07-12T14:55:49;1.10;;;1.10;;
8871;SDS011;4472;52.092;9.820;2022-07-12T14:58:38;1.05;;;1.05;;
8871;SDS011;4472;52.092;9.820;2022-07-12T15:01:25;1.20;;;1.20;;
8871;SDS011;4472;52.092;9.820;2022-07-12T15:04:12;1.33;;;1.23;;
8871;SDS011;4472;52.092;9.820;2022-07-12T15:06:59;1.00;;;1.00;;
8871;SDS011;4472;52.092;9.820;2022-07-12T15:09:47;1.10;;;1.10;;
8871;SDS011;4472;52.092;9.820;2022-07-12T15:12:34;1.97;;;1.30;;
8871;SDS011;4472;52.092;9.820;2022-07-12T15:15:23;1.20;;;1.10;;
8871;SDS011;4472;52.092;9.820;2022-07-12T15:18:10;1.77;;;1.10;;
8871;SDS011;4472;52.092;9.820;2022-07-12T15:20:57;1.10;;;1.10;;
8871;SDS011;4472;52.092;9.820;2022-07-12T15:23:44;1.10;;;1.00;;
8871;SDS011;4472;52.092;9.820;2022-07-12T15:26:31;1.20;;;1.10;;
8871;SDS011;4472;52.092;9.820;2022-07-12T15:29:19;0.90;;;0.90;;
8871;SDS011;4472;52.092;9.820;2022-07-12T15:32:07;1.00;;;1.00;;
8871;SDS011;4472;52.092;9.820;2022-07-12T15:34:55;1.10;;;1.10;;
8871;SDS011;4472;52.092;9.820;2022-07-12T15:37:43;1.33;;;1.23;;
8871;SDS011;4472;52.092;9.820;2022-07-12T15:40:30;1.20;;;1.10;;
8871;SDS011;4472;52.092;9.820;2022-07-12T15:43:18;5.60;;;1.40;;
8871;SDS011;4472;52.092;9.820;2022-07-12T15:46:05;1.30;;;1.20;;
8871;SDS011;4472;52.092;9.820;2022-07-12T15:48:54;1.73;;;1.10;;
8871;SDS011;4472;52.092;9.820;2022-07-12T15:51:41;1.02;;;1.00;;
8871;SDS011;4472;52.092;9.820;2022-07-12T15:54:46;1.70;;;1.20;;
8871;SDS011;4472;52.092;9.820;2022-07-12T15:57:33;1.40;;;1.20;;
8871;SDS011;4472;52.092;9.820;2022-07-12T16:00:21;2.47;;;1.17;;
8871;SDS011;4472;52.092;9.820;2022-07-12T16:03:09;2.50;;;1.50;;
8871;SDS011;4472;52.092;9.820;2022-07-12T16:05:58;3.37;;;1.20;;
8871;SDS011;4472;52.092;9.820;2022-07-12T16:08:46;2.07;;;1.30;;
8871;SDS011;4472;52.092;9.820;2022-07-12T16:11:33;1.50;;;1.40;;
8871;SDS011;4472;52.092;9.820;2022-07-12T16:14:20;1.38;;;1.27;;
8871;SDS011;4472;52.092;9.820;2022-07-12T16:17:07;1.30;;;1.30;;
8871;SDS011;4472;52.092;9.820;2022-07-12T16:19:55;4.83;;;1.30;;
8871;SDS011;4472;52.092;9.820;2022-07-12T16:22:43;1.50;;;1.40;;
8871;SDS011;4472;52.092;9.820;2022-07-12T16:25:30;1.23;;;1.23;;
8871;SDS011;4472;52.092;9.820;2022-07-12T16:28:18;1.13;;;1.13;;
8871;SDS011;4472;52.092;9.820;2022-07-12T16:31:05;1.50;;;1.40;;
8871;SDS011;4472;52.092;9.820;2022-07-12T16:33:54;1.40;;;1.40;;
8871;SDS011;4472;52.092;9.820;2022-07-12T16:36:41;1.50;;;1.40;;
8871;SDS011;4472;52.092;9.820;2022-07-12T16:39:30;2.20;;;1.27;;
8871;SDS011;4472;52.092;9.820;2022-07-12T16:42:17;1.37;;;1.27;;
8871;SDS011;4472;52.092;9.820;2022-07-12T16:45:04;1.37;;;1.37;;
8871;SDS011;4472;52.092;9.820;2022-07-12T16:47:52;1.43;;;1.33;;
8871;SDS011;4472;52.092;9.820;2022-07-12T16:50:39;1.73;;;1.20;;
8871;SDS011;4472;52.092;9.820;2022-07-12T16:53:26;1.37;;;1.20;;
8871;SDS011;4472;52.092;9.820;2022-07-12T16:56:15;1.30;;;1.30;;
8871;SDS011;4472;52.092;9.820;2022-07-12T16:59:02;1.43;;;1.37;;
8871;SDS011;4472;52.092;9.820;2022-07-12T17:01:50;2.23;;;1.50;;
8871;SDS011;4472;52.092;9.820;2022-07-12T17:04:37;3.87;;;1.50;;
8871;SDS011;4472;52.092;9.820;2022-07-12T17:07:24;3.80;;;1.50;;
8871;SDS011;4472;52.092;9.820;2022-07-12T17:10:11;1.67;;;1.50;;
8871;SDS011;4472;52.092;9.820;2022-07-12T17:13:00;2.53;;;1.70;;
8871;SDS011;4472;52.092;9.820;2022-07-12T17:15:47;3.10;;;1.67;;
8871;SDS011;4472;52.092;9.820;2022-07-12T17:18:35;1.70;;;1.60;;
8871;SDS011;4472;52.092;9.820;2022-07-12T17:21:22;1.60;;;1.50;;
8871;SDS011;4472;52.092;9.820;2022-07-12T17:24:09;1.77;;;1.50;;
8871;SDS011;4472;52.092;9.820;2022-07-12T17:26:56;1.90;;;1.40;;
8871;SDS011;4472;52.092;9.820;2022-07-12T17:29:45;1.50;;;1.50;;
8871;SDS011;4472;52.092;9.820;2022-07-12T17:32:32;2.67;;;1.80;;
8871;SDS011;4472;52.092;9.820;2022-07-12T17:35:20;2.63;;;1.80;;